Time,TemperatureF,DewpointF,PressureIn,WindDirection,WindDirectionDegrees,WindSpeedMPH,WindSpeedGustMPH,Humidity,HourlyPrecipIn,Conditions,Clouds,dailyrainin,SoftwareType,DateUTC
2013-07-29 00:02:00,59.0,51.0,-100.00,North,-999,-999.0,-999.0,74,-99.99,,,-99.99,,2013-07-29 07:02:00,
2013-07-29 00:12:00,59.0,51.0,-100.00,North,-999,-999.0,-999.0,74,-99.99,,,-99.99,,2013-07-29 07:12:00,
2013-07-29 00:22:00,58.0,50.0,-100.00,North,-999,-999.0,-999.0,75,-99.99,,,-99.99,,2013-07-29 07:22:00,
2013-07-29 00:33:00,58.0,50.0,-100.00,North,-999,-999.0,-999.0,75,-99.99,,,-99.99,,2013-07-29 07:33:00,
2013-07-29 00:43:00,58.0,50.0,-100.00,North,-999,-999.0,-999.0,75,-99.99,,,-99.99,,2013-07-29 07:43:00,
2013-07-29 00:53:00,58.0,50.0,-100.00,North,-999,-999.0,-999.0,75,-99.99,,,-99.99,,2013-07-29 07:53:00,
2013-07-29 01:02:00,57.0,49.0,-100.00,North,-999,-999.0,-999.0,74,-99.99,,,-99.99,,2013-07-29 08:02:00,
2013-07-29 01:12:00,57.0,49.0,-100.00,North,-999,-999.0,-999.0,74,-99.99,,,-99.99,,2013-07-29 08:12:00,
2013-07-29 01:22:00,57.0,49.0,-100.00,North,-999,-999.0,-999.0,74,-99.99,,,-99.99,,2013-07-29 08:22:00,
2013-07-29 01:33:00,56.0,49.0,-100.00,North,-999,-999.0,-999.0,77,-99.99,,,0.00,,2013-07-29 08:33:00,
2013-07-29 01:42:00,56.0,49.0,-100.00,North,-999,-999.0,-999.0,77,-99.99,,,0.00,,2013-07-29 08:42:00,
2013-07-29 01:52:00,56.0,49.0,-100.00,North,-999,-999.0,-999.0,77,-99.99,,,0.00,,2013-07-29 08:52:00,
2013-07-29 02:02:00,55.0,49.0,-100.00,North,-999,-999.0,-999.0,80,-99.99,,,-99.99,,2013-07-29 09:02:00,
2013-07-29 02:12:00,55.0,49.0,-100.00,North,-999,-999.0,-999.0,80,-99.99,,,-99.99,,2013-07-29 09:12:00,
2013-07-29 02:22:00,55.0,49.0,-100.00,North,-999,-999.0,-999.0,80,-99.99,,,-99.99,,2013-07-29 09:22:00,
2013-07-29 02:33:00,54.0,48.0,-100.00,North,-999,-999.0,-999.0,79,-99.99,,,-99.99,,2013-07-29 09:33:00,
2013-07-29 02:43:00,54.0,48.0,-100.00,North,-999,-999.0,-999.0,79,-99.99,,,-99.99,,2013-07-29 09:43:00,
2013-07-29 03:02:00,53.0,47.0,-100.00,North,-999,-999.0,-999.0,81,-99.99,,,-99.99,,2013-07-29 10:02:00,
2013-07-29 03:13:00,53.0,47.0,-100.00,North,-999,-999.0,-999.0,81,-99.99,,,-99.99,,2013-07-29 10:13:00,
2013-07-29 03:23:00,53.0,47.0,-100.00,North,-999,-999.0,-999.0,81,-99.99,,,-99.99,,2013-07-29 10:23:00,
2013-07-29 03:33:00,52.0,47.0,-100.00,North,-999,-999.0,-999.0,82,-99.99,,,-99.99,,2013-07-29 10:33:00,
2013-07-29 03:55:00,51.0,45.0,-100.00,North,-999,-999.0,-999.0,79,-99.99,,,-99.99,,2013-07-29 10:55:00,
2013-07-29 04:03:00,51.0,45.0,-100.00,North,-999,-999.0,-999.0,79,-99.99,,,-99.99,,2013-07-29 11:03:00,
2013-07-29 04:14:00,51.0,45.0,-100.00,North,-999,-999.0,-999.0,79,-99.99,,,-99.99,,2013-07-29 11:14:00,
2013-07-29 04:22:00,51.0,45.0,-100.00,North,-999,-999.0,-999.0,79,-99.99,,,-99.99,,2013-07-29 11:22:00,
2013-07-29 05:11:00,51.0,-99.9,-100.00,North,-999,-999.0,-999.0,-999,-99.99,,,-99.99,,2013-07-29 12:11:00,
2013-07-29 05:18:00,51.0,-99.9,-100.00,North,-999,-999.0,-999.0,-999,-99.99,,,-99.99,,2013-07-29 12:18:00,
2013-07-29 05:33:00,50.0,46.0,-100.00,North,-999,-999.0,-999.0,87,-99.99,,,-99.99,,2013-07-29 12:33:00,
2013-07-29 05:48:00,50.0,46.0,-100.00,North,-999,-999.0,-999.0,87,-99.99,,,-99.99,,2013-07-29 12:48:00,
2013-07-29 06:14:00,49.0,45.0,-100.00,North,-999,-999.0,-999.0,86,-99.99,,,-99.99,,2013-07-29 13:14:00,
2013-07-29 06:33:00,49.0,44.0,-100.00,North,-999,-999.0,-999.0,82,-99.99,,,-99.99,,2013-07-29 13:33:00,
2013-07-29 06:45:00,49.0,44.0,-100.00,North,-999,-999.0,-999.0,82,-99.99,,,-99.99,,2013-07-29 13:45:00,
2013-07-29 07:03:00,48.0,44.0,-100.00,North,-999,-999.0,-999.0,85,-99.99,,,-99.99,,2013-07-29 14:03:00,
2013-07-29 07:12:00,48.0,44.0,-100.00,North,-999,-999.0,-999.0,85,-99.99,,,-99.99,,2013-07-29 14:12:00,
2013-07-29 07:33:00,50.0,45.0,-100.00,North,-999,-999.0,-999.0,84,-99.99,,,-99.99,,2013-07-29 14:33:00,
2013-07-29 08:02:00,52.0,47.0,-100.00,North,-999,-999.0,-999.0,84,-99.99,,,-99.99,,2013-07-29 15:02:00,
2013-07-29 08:12:00,52.0,47.0,-100.00,North,-999,-999.0,-999.0,84,-99.99,,,-99.99,,2013-07-29 15:12:00,
2013-07-29 08:24:00,52.0,47.0,-100.00,North,-999,-999.0,-999.0,84,-99.99,,,-99.99,,2013-07-29 15:24:00,
2013-07-29 08:34:00,67.0,50.0,-100.00,North,-999,-999.0,-999.0,55,-99.99,,,-99.99,,2013-07-29 15:34:00,
2013-07-29 08:45:00,67.0,50.0,-100.00,North,-999,-999.0,-999.0,55,-99.99,,,-99.99,,2013-07-29 15:45:00,
2013-07-29 08:55:00,67.0,50.0,-100.00,North,-999,-999.0,-999.0,55,-99.99,,,-99.99,,2013-07-29 15:55:00,
2013-07-29 09:03:00,75.0,52.0,-100.00,North,-999,-999.0,-999.0,45,-99.99,,,-99.99,,2013-07-29 16:03:00,
2013-07-29 09:12:00,75.0,52.0,-100.00,North,-999,-999.0,-999.0,45,-99.99,,,-99.99,,2013-07-29 16:12:00,
2013-07-29 09:34:00,76.0,49.0,-100.00,North,-999,-999.0,-999.0,38,-99.99,,,-99.99,,2013-07-29 16:34:00,
2013-07-29 09:47:00,76.0,49.0,-100.00,North,-999,-999.0,-999.0,38,-99.99,,,-99.99,,2013-07-29 16:47:00,
2013-07-29 09:57:00,76.0,49.0,-100.00,North,-999,-999.0,-999.0,38,-99.99,,,-99.99,,2013-07-29 16:57:00,
2013-07-29 10:03:00,82.0,48.0,-100.00,North,-999,-999.0,-999.0,31,-99.99,,,-99.99,,2013-07-29 17:03:00,
2013-07-29 10:13:00,82.0,48.0,-100.00,North,-999,-999.0,-999.0,31,-99.99,,,-99.99,,2013-07-29 17:13:00,
2013-07-29 10:23:00,82.0,48.0,-100.00,North,-999,-999.0,-999.0,31,-99.99,,,-99.99,,2013-07-29 17:23:00,
2013-07-29 10:34:00,81.0,44.0,-100.00,North,-999,-999.0,-999.0,27,-99.99,,,-99.99,,2013-07-29 17:34:00,
2013-07-29 10:45:00,81.0,44.0,-100.00,North,-999,-999.0,-999.0,27,-99.99,,,-99.99,,2013-07-29 17:45:00,
2013-07-29 10:58:00,81.0,44.0,-100.00,North,-999,-999.0,-999.0,27,-99.99,,,-99.99,,2013-07-29 17:58:00,
2013-07-29 11:13:00,83.0,44.0,-100.00,North,-999,-999.0,-999.0,25,-99.99,,,-99.99,,2013-07-29 18:13:00,
2013-07-29 11:23:00,83.0,44.0,-100.00,North,-999,-999.0,-999.0,25,-99.99,,,-99.99,,2013-07-29 18:23:00,
2013-07-29 11:33:00,83.0,45.0,-100.00,North,-999,-999.0,-999.0,26,-99.99,,,-99.99,,2013-07-29 18:33:00,
2013-07-29 11:47:00,83.0,45.0,-100.00,North,-999,-999.0,-999.0,26,-99.99,,,-99.99,,2013-07-29 18:47:00,
2013-07-29 12:02:00,83.0,46.0,-100.00,North,-999,-999.0,-999.0,27,-99.99,,,-99.99,,2013-07-29 19:02:00,
2013-07-29 12:14:00,83.0,46.0,-100.00,North,-999,-999.0,-999.0,27,-99.99,,,-99.99,,2013-07-29 19:14:00,
2013-07-29 12:23:00,83.0,46.0,-100.00,North,-999,-999.0,-999.0,27,-99.99,,,-99.99,,2013-07-29 19:23:00,
2013-07-29 12:34:00,83.0,42.0,-100.00,North,-999,-999.0,-999.0,24,-99.99,,,-99.99,,2013-07-29 19:34:00,
2013-07-29 12:47:00,83.0,42.0,-100.00,North,-999,-999.0,-999.0,24,-99.99,,,-99.99,,2013-07-29 19:47:00,
2013-07-29 12:56:00,83.0,42.0,-100.00,North,-999,-999.0,-999.0,24,-99.99,,,-99.99,,2013-07-29 19:56:00,
2013-07-29 13:03:00,85.0,39.0,-100.00,North,-999,-999.0,-999.0,20,-99.99,,,-99.99,,2013-07-29 20:03:00,
2013-07-29 13:14:00,85.0,39.0,-100.00,North,-999,-999.0,-999.0,20,-99.99,,,-99.99,,2013-07-29 20:14:00,
2013-07-29 13:33:00,86.0,38.0,-100.00,North,-999,-999.0,-999.0,18,-99.99,,,-99.99,,2013-07-29 20:33:00,
2013-07-29 13:48:00,86.0,38.0,-100.00,North,-999,-999.0,-999.0,18,-99.99,,,-99.99,,2013-07-29 20:48:00,
2013-07-29 13:58:00,86.0,38.0,-100.00,North,-999,-999.0,-999.0,18,-99.99,,,-99.99,,2013-07-29 20:58:00,
2013-07-29 14:15:00,86.0,46.0,-100.00,North,-999,-999.0,-999.0,25,-99.99,,,-99.99,,2013-07-29 21:15:00,
2013-07-29 14:23:00,86.0,46.0,-100.00,North,-999,-999.0,-999.0,25,-99.99,,,-99.99,,2013-07-29 21:23:00,
2013-07-29 14:58:00,87.0,53.0,-100.00,North,-999,-999.0,-999.0,31,-99.99,,,-99.99,,2013-07-29 21:58:00,
2013-07-29 15:45:00,86.0,53.0,-100.00,North,-999,-999.0,-999.0,32,-99.99,,,-99.99,,2013-07-29 22:45:00,
2013-07-29 15:55:00,86.0,53.0,-100.00,North,-999,-999.0,-999.0,32,-99.99,,,-99.99,,2013-07-29 22:55:00,
2013-07-29 16:23:00,87.0,51.0,-100.00,North,-999,-999.0,-999.0,29,-99.99,,,-99.99,,2013-07-29 23:23:00,
2013-07-29 16:33:00,83.0,53.0,-100.00,North,-999,-999.0,-999.0,36,-99.99,,,-99.99,,2013-07-29 23:33:00,
2013-07-29 16:46:00,83.0,53.0,-100.00,North,-999,-999.0,-999.0,36,-99.99,,,-99.99,,2013-07-29 23:46:00,
2013-07-29 16:55:00,83.0,53.0,-100.00,North,-999,-999.0,-999.0,36,-99.99,,,-99.99,,2013-07-29 23:55:00,
2013-07-29 17:02:00,83.0,53.0,-100.00,North,-999,-999.0,-999.0,36,-99.99,,,-99.99,,2013-07-30 00:02:00,
2013-07-29 17:14:00,83.0,53.0,-100.00,North,-999,-999.0,-999.0,36,-99.99,,,-99.99,,2013-07-30 00:14:00,
2013-07-29 17:23:00,83.0,53.0,-100.00,North,-999,-999.0,-999.0,36,-99.99,,,-99.99,,2013-07-30 00:23:00,
2013-07-29 17:55:00,82.0,54.0,-100.00,North,-999,-999.0,-999.0,38,-99.99,,,-99.99,,2013-07-30 00:55:00,
2013-07-29 18:58:00,79.0,54.0,-100.00,North,-999,-999.0,-999.0,42,-99.99,,,-99.99,,2013-07-30 01:58:00,
2013-07-29 19:13:00,78.0,53.0,-100.00,North,-999,-999.0,-999.0,42,-99.99,,,-99.99,,2013-07-30 02:13:00,
2013-07-29 19:33:00,77.0,51.0,-100.00,North,-999,-999.0,-999.0,41,-99.99,,,-99.99,,2013-07-30 02:33:00,
2013-07-29 19:46:00,77.0,51.0,-100.00,North,-999,-999.0,-999.0,41,-99.99,,,-99.99,,2013-07-30 02:46:00,
2013-07-29 19:55:00,75.0,52.0,-100.00,North,-999,-999.0,-999.0,44,-99.99,,,-99.99,,2013-07-30 02:55:00,
2013-07-29 20:14:00,75.0,52.0,-100.00,North,-999,-999.0,-999.0,44,-99.99,,,-99.99,,2013-07-30 03:14:00,
2013-07-29 20:33:00,71.0,52.0,-100.00,North,-999,-999.0,-999.0,52,-99.99,,,-99.99,,2013-07-30 03:33:00,
2013-07-29 20:47:00,71.0,52.0,-100.00,North,-999,-999.0,-999.0,52,-99.99,,,-99.99,,2013-07-30 03:47:00,
2013-07-29 20:54:00,71.0,52.0,-100.00,North,-999,-999.0,-999.0,52,-99.99,,,-99.99,,2013-07-30 03:54:00,
2013-07-29 21:02:00,68.0,52.0,-100.00,North,-999,-999.0,-999.0,57,-99.99,,,-99.99,,2013-07-30 04:02:00,
2013-07-29 21:12:00,68.0,52.0,-100.00,North,-999,-999.0,-999.0,57,-99.99,,,-99.99,,2013-07-30 04:12:00,
2013-07-29 21:22:00,68.0,52.0,-100.00,North,-999,-999.0,-999.0,57,-99.99,,,-99.99,,2013-07-30 04:22:00,
2013-07-29 21:32:00,65.0,49.0,-100.00,North,-999,-999.0,-999.0,57,-99.99,,,-99.99,,2013-07-30 04:32:00,
2013-07-29 21:43:00,65.0,49.0,-100.00,North,-999,-999.0,-999.0,57,-99.99,,,-99.99,,2013-07-30 04:43:00,
2013-07-29 22:02:00,61.0,46.0,-100.00,North,-999,-999.0,-999.0,58,-99.99,,,-99.99,,2013-07-30 05:02:00,
2013-07-29 22:12:00,61.0,46.0,-100.00,North,-999,-999.0,-999.0,58,-99.99,,,-99.99,,2013-07-30 05:12:00,
2013-07-29 22:22:00,61.0,46.0,-100.00,North,-999,-999.0,-999.0,58,-99.99,,,-99.99,,2013-07-30 05:22:00,
2013-07-29 22:32:00,60.0,45.0,-100.00,North,-999,-999.0,-999.0,58,-99.99,,,-99.99,,2013-07-30 05:32:00,
2013-07-29 22:45:00,60.0,45.0,-100.00,North,-999,-999.0,-999.0,58,-99.99,,,-99.99,,2013-07-30 05:45:00,
2013-07-29 23:02:00,58.0,45.0,-100.00,North,-999,-999.0,-999.0,62,-99.99,,,-99.99,,2013-07-30 06:02:00,
2013-07-29 23:12:00,58.0,45.0,-100.00,North,-999,-999.0,-999.0,62,-99.99,,,-99.99,,2013-07-30 06:12:00,
2013-07-29 23:32:00,57.0,44.0,-100.00,North,-999,-999.0,-999.0,61,-99.99,,,-99.99,,2013-07-30 06:32:00,
2013-07-29 23:43:00,57.0,44.0,-100.00,North,-999,-999.0,-999.0,61,-99.99,,,-99.99,,2013-07-30 06:43:00,
2013-07-29 23:53:00,57.0,44.0,-100.00,North,-999,-999.0,-999.0,61,-99.99,,,-99.99,,2013-07-30 06:53:00,